Time;durP1;ratioP1;P1;durP2;ratioP2;P2;SDS_P1;SDS_P2;PMS_P1;PMS_P2;Temp;Humidity;BMP_temperature;BMP_pressure;BME280_temperature;BME280_humidity;BME280_pressure;Samples;Min_cycle;Max_cycle;Signal;HPM_P1;HPM_P2
2023/03/29 00:00:24;;;;;;;3.70;2.03;;;;;;;0.93;100.00;95969.78;5036229;28;20622;-71
2023/03/29 00:03:11;;;;;;;5.07;2.30;;;;;;;1.00;100.00;95982.75;5039622;28;20049;-71
2023/03/29 00:05:39;;;;;;;3.58;2.17;;;;;;;1.07;100.00;95983.56;5036403;28;20045;-71
2023/03/29 00:08:06;;;;;;;4.65;2.22;;;;;;;1.03;100.00;95992.72;5041873;28;20052;-72
2023/03/29 00:10:33;;;;;;;4.88;2.65;;;;;;;1.20;100.00;96003.53;5033763;28;20079;-72
2023/03/29 00:12:59;;;;;;;4.07;2.28;;;;;;;1.28;100.00;96010.31;5043520;28;20045;-71
2023/03/29 00:15:25;;;;;;;4.03;2.22;;;;;;;1.31;100.00;96018.50;5032809;28;20079;-71
2023/03/29 00:17:51;;;;;;;3.72;2.33;;;;;;;1.31;100.00;96022.91;5039113;28;20064;-72
2023/03/29 00:20:16;;;;;;;5.40;2.20;;;;;;;1.54;100.00;96031.09;5045543;28;20041;-71
2023/03/29 00:22:43;;;;;;;5.88;2.63;;;;;;;1.73;100.00;96031.28;5030028;28;20056;-72
2023/03/29 00:25:10;;;;;;;4.60;2.22;;;;;;;1.85;100.00;96042.69;5038692;28;20105;-72
2023/03/29 00:27:36;;;;;;;4.47;1.92;;;;;;;2.19;100.00;96038.22;5035798;28;20407;-71
2023/03/29 00:30:04;;;;;;;3.20;1.90;;;;;;;2.36;100.00;96040.41;5046027;28;20045;-72
2023/03/29 00:32:30;;;;;;;4.53;1.75;;;;;;;2.47;100.00;96052.75;5039620;28;20041;-72
2023/03/29 00:34:59;;;;;;;3.42;2.15;;;;;;;2.36;100.00;96048.97;5043669;28;20107;-71
2023/03/29 00:37:25;;;;;;;3.58;1.65;;;;;;;2.45;100.00;96046.94;5040721;28;20422;-72
2023/03/29 00:39:51;;;;;;;6.75;1.55;;;;;;;2.48;100.00;96046.53;5035945;28;20045;-72
2023/03/29 00:42:17;;;;;;;3.40;1.52;;;;;;;2.41;100.00;96040.56;5043894;28;20037;-72
2023/03/29 00:45:17;;;;;;;2.40;1.75;;;;;;;2.38;100.00;96040.97;5041771;28;20052;-72
2023/03/29 00:47:50;;;;;;;3.13;1.60;;;;;;;2.34;100.00;96034.59;5041535;28;20087;-72
2023/03/29 00:50:49;;;;;;;2.53;1.70;;;;;;;2.53;100.00;96033.75;5041734;28;20096;-71
2023/03/29 00:53:35;;;;;;;2.78;1.65;;;;;;;2.60;100.00;96029.31;5034998;28;20811;-72
2023/03/29 00:56:06;;;;;;;2.33;1.60;;;;;;;2.66;100.00;96032.09;5036100;28;20041;-71
2023/03/29 00:59:08;;;;;;;4.10;1.85;;;;;;;2.59;100.00;96027.72;5043323;28;20075;-72
2023/03/29 01:01:46;;;;;;;2.92;1.90;;;;;;;2.56;100.00;96038.53;5036891;28;20398;-71
2023/03/29 01:04:22;;;;;;;2.10;1.50;;;;;;;2.49;100.00;96032.56;5035477;28;20120;-71
2023/03/29 01:06:55;;;;;;;5.38;1.75;;;;;;;2.38;100.00;96035.78;5042119;28;20047;-71
2023/03/29 01:09:25;;;;;;;2.15;1.40;;;;;;;2.36;100.00;96028.19;5038020;28;20069;-71
2023/03/29 01:11:58;;;;;;;6.57;1.90;;;;;;;2.34;100.00;96019.81;5048275;28;20042;-71
2023/03/29 01:14:55;;;;;;;2.88;1.80;;;;;;;2.30;100.00;96012.63;5047742;28;20045;-71
2023/03/29 01:17:24;;;;;;;3.33;1.70;;;;;;;2.25;100.00;96005.44;5035623;28;20061;-71
2023/03/29 01:20:09;;;;;;;2.92;1.80;;;;;;;2.21;100.00;95999.88;5046748;28;20041;-72
2023/03/29 01:23:17;;;;;;;3.95;1.98;;;;;;;2.17;100.00;95988.31;5042056;28;20044;-70
2023/03/29 01:25:49;;;;;;;4.45;2.15;;;;;;;2.18;100.00;95989.88;5047487;28;20039;-70
2023/03/29 01:28:21;;;;;;;4.82;1.83;;;;;;;2.15;100.00;95985.09;5041464;28;20107;-71
2023/03/29 01:30:53;;;;;;;5.07;2.30;;;;;;;2.07;100.00;95977.56;5032305;28;20053;-71
2023/03/29 01:33:42;;;;;;;3.03;2.10;;;;;;;2.03;100.00;95971.16;5035101;28;20508;-70
2023/03/29 01:36:17;;;;;;;3.40;2.08;;;;;;;1.97;100.00;95972.78;5032762;28;20042;-71
2023/03/29 01:39:03;;;;;;;3.17;1.80;;;;;;;1.92;100.00;95975.16;5037706;28;20052;-71
2023/03/29 01:42:04;;;;;;;4.10;2.00;;;;;;;1.97;100.00;95971.97;5037593;28;20536;-71
2023/03/29 01:44:36;;;;;;;2.90;1.88;;;;;;;1.93;100.00;95970.78;5037399;28;20059;-71
2023/03/29 01:47:46;;;;;;;2.47;1.65;;;;;;;1.93;100.00;95950.03;5042996;28;20033;-71
2023/03/29 01:50:20;;;;;;;3.78;2.03;;;;;;;1.79;100.00;95929.28;5037624;28;20064;-71
2023/03/29 01:53:08;;;;;;;4.15;1.80;;;;;;;1.82;100.00;95928.88;5038446;28;20128;-71
2023/03/29 01:55:38;;;;;;;5.25;1.88;;;;;;;1.75;100.00;95907.31;5038515;28;20044;-72
2023/03/29 01:58:05;;;;;;;3.75;1.88;;;;;;;1.70;100.00;95920.13;5036815;28;20049;-71
2023/03/29 02:00:33;;;;;;;3.65;1.92;;;;;;;1.64;100.00;95905.34;5039946;28;20079;-71
2023/03/29 02:03:05;;;;;;;3.25;1.90;;;;;;;1.66;100.00;95914.53;5044942;28;20045;-71
2023/03/29 02:05:32;;;;;;;4.10;1.70;;;;;;;1.60;100.00;95925.72;5039180;28;20033;-71
2023/03/29 02:08:00;;;;;;;3.45;1.70;;;;;;;1.66;100.00;95904.16;5049256;28;20048;-71
2023/03/29 02:10:27;;;;;;;3.95;1.60;;;;;;;1.66;100.00;95895.59;5038914;28;20052;-71
2023/03/29 02:12:52;;;;;;;5.43;1.80;;;;;;;1.62;100.00;95891.78;5037226;28;20575;-71
2023/03/29 02:15:19;;;;;;;3.80;1.67;;;;;;;1.71;100.00;95900.94;5037426;28;20049;-71
2023/03/29 02:17:46;;;;;;;4.53;1.75;;;;;;;1.61;100.00;95893.59;5044284;28;20615;-71
2023/03/29 02:20:24;;;;;;;3.22;1.70;;;;;;;1.61;100.00;95879.81;5041357;28;20095;-71
2023/03/29 02:23:01;;;;;;;2.60;1.63;;;;;;;1.50;100.00;95879.44;5041446;28;20045;-71
2023/03/29 02:25:28;;;;;;;3.35;1.80;;;;;;;1.55;100.00;95887.44;5043984;28;20068;-71
2023/03/29 02:27:54;;;;;;;3.13;1.63;;;;;;;1.51;100.00;95896.59;5045420;28;20469;-71
2023/03/29 02:30:24;;;;;;;3.33;1.70;;;;;;;1.53;100.00;95884.22;5034845;28;20038;-71
2023/03/29 02:33:00;;;;;;;2.67;1.60;;;;;;;1.49;100.00;95888.22;5039347;28;20064;-71
2023/03/29 02:35:33;;;;;;;3.28;1.60;;;;;;;1.50;100.00;95879.44;5038363;28;20157;-71
2023/03/29 02:38:03;;;;;;;2.67;1.50;;;;;;;1.51;100.00;95881.03;5039361;28;20801;-72
2023/03/29 02:40:31;;;;;;;2.13;1.42;;;;;;;1.52;100.00;95864.50;5043388;28;20037;-71
2023/03/29 02:42:59;;;;;;;2.88;1.80;;;;;;;1.50;100.00;95852.72;5044211;28;20405;-72
2023/03/29 02:45:27;;;;;;;3.78;1.98;;;;;;;1.47;100.00;95863.50;5050841;28;20049;-71
2023/03/29 02:48:02;;;;;;;3.83;1.98;;;;;;;1.53;100.00;95860.88;5049272;28;20047;-72
2023/03/29 02:50:35;;;;;;;4.60;2.00;;;;;;;1.41;100.00;95849.53;5034275;28;20041;-72
2023/03/29 02:53:06;;;;;;;3.42;1.70;;;;;;;1.45;100.00;95850.75;5037468;28;20045;-72
2023/03/29 02:55:33;;;;;;;4.28;2.10;;;;;;;1.37;100.00;95853.53;5038974;28;20041;-72
2023/03/29 02:58:06;;;;;;;4.10;2.10;;;;;;;1.41;100.00;95843.53;5045447;28;20041;-72
2023/03/29 03:00:32;;;;;;;3.40;1.88;;;;;;;1.35;100.00;95834.78;5039530;28;20045;-72
2023/03/29 03:02:58;;;;;;;3.50;2.00;;;;;;;1.29;100.00;95835.59;5039036;28;20091;-72
2023/03/29 03:05:24;;;;;;;3.40;1.88;;;;;;;1.29;100.00;95840.78;5042145;28;20095;-72
2023/03/29 03:07:50;;;;;;;3.05;1.77;;;;;;;1.36;100.00;95842.34;5040669;28;20041;-72
2023/03/29 03:10:18;;;;;;;4.03;2.15;;;;;;;1.29;100.00;95840.78;5044100;28;20041;-72
2023/03/29 03:12:43;;;;;;;4.25;1.77;;;;;;;1.24;100.00;95828.44;5033664;28;20061;-71
2023/03/29 03:15:09;;;;;;;4.80;2.00;;;;;;;1.31;100.00;95828.44;5047170;28;20052;-72
2023/03/29 03:17:38;;;;;;;2.55;1.77;;;;;;;1.23;100.00;95837.19;5039879;28;20487;-71
2023/03/29 03:20:11;;;;;;;3.63;1.95;;;;;;;1.23;100.00;95828.63;5045847;28;20539;-71
2023/03/29 03:22:38;;;;;;;3.58;2.10;;;;;;;1.19;100.00;95823.84;5034606;28;20772;-71
2023/03/29 03:25:04;;;;;;;4.60;2.10;;;;;;;1.15;100.00;95827.84;5047105;28;20052;-71
2023/03/29 03:27:29;;;;;;;2.90;1.73;;;;;;;1.18;100.00;95819.66;5062121;28;20046;-71
2023/03/29 03:29:55;;;;;;;3.35;1.90;;;;;;;1.17;100.00;95818.06;5043150;28;20088;-71
2023/03/29 03:32:20;;;;;;;3.53;1.80;;;;;;;1.08;100.00;95811.50;5033972;28;20033;-71
2023/03/29 03:34:46;;;;;;;4.05;2.05;;;;;;;1.11;100.00;95803.31;5035296;28;20531;-71
2023/03/29 03:37:12;;;;;;;4.50;1.80;;;;;;;1.05;100.00;95793.78;5040337;28;20045;-71
2023/03/29 03:39:37;;;;;;;3.17;1.92;;;;;;;1.10;100.00;95801.72;5031383;28;20497;-71
2023/03/29 03:42:03;;;;;;;2.25;1.50;;;;;;;1.03;100.00;95806.94;5047938;28;20037;-71
2023/03/29 03:44:29;;;;;;;3.17;1.88;;;;;;;1.00;100.00;95796.16;5044876;28;20130;-71
2023/03/29 03:46:54;;;;;;;5.13;1.95;;;;;;;0.98;100.00;95787.81;5037027;28;20508;-71
2023/03/29 03:49:20;;;;;;;3.88;2.17;;;;;;;0.94;100.00;95786.59;5044781;28;20071;-71
2023/03/29 03:51:46;;;;;;;3.70;2.00;;;;;;;0.97;100.00;95781.03;5031600;28;20049;-72
2023/03/29 03:54:11;;;;;;;3.25;2.10;;;;;;;0.92;100.00;95783.41;5045277;28;20072;-71
2023/03/29 03:56:37;;;;;;;3.72;2.17;;;;;;;1.00;100.00;95775.44;5041114;28;20048;-71
2023/03/29 03:59:03;;;;;;;4.60;2.20;;;;;;;0.94;100.00;95765.88;5036171;28;20045;-71
2023/03/29 04:01:28;;;;;;;4.32;2.40;;;;;;;0.94;100.00;95771.84;5039153;28;20039;-71
2023/03/29 04:03:54;;;;;;;3.35;2.00;;;;;;;0.93;100.00;95764.28;5037249;28;20508;-71
2023/03/29 04:06:20;;;;;;;3.92;2.03;;;;;;;0.96;100.00;95756.09;5039713;28;20045;-71
2023/03/29 04:08:46;;;;;;;5.55;2.40;;;;;;;0.91;100.00;95750.75;5041144;28;20087;-71
2023/03/29 04:11:12;;;;;;;5.07;2.10;;;;;;;0.96;100.00;95753.50;5033108;28;20107;-71
2023/03/29 04:13:38;;;;;;;8.23;2.38;;;;;;;0.91;100.00;95750.75;5038977;28;20107;-71
2023/03/29 04:16:04;;;;;;;8.27;2.10;;;;;;;1.02;100.00;95753.50;5042457;28;20595;-71
2023/03/29 04:18:30;;;;;;;4.05;2.03;;;;;;;1.02;100.00;95752.69;5030147;28;20042;-70
2023/03/29 04:20:55;;;;;;;3.90;1.95;;;;;;;1.08;100.00;95754.47;5042333;28;20103;-70
2023/03/29 04:23:21;;;;;;;4.35;2.00;;;;;;;1.10;100.00;95756.88;5034854;28;20413;-71
2023/03/29 04:25:46;;;;;;;3.08;1.90;;;;;;;1.11;100.00;95755.88;5038032;28;20451;-71
2023/03/29 04:28:12;;;;;;;3.50;1.90;;;;;;;1.15;100.00;95752.66;5040292;28;20037;-71
2023/03/29 04:30:38;;;;;;;2.97;1.77;;;;;;;1.19;100.00;95746.09;5037272;28;20052;-71
2023/03/29 04:33:04;;;;;;;3.85;2.08;;;;;;;1.19;100.00;95746.09;5034834;28;20045;-71
2023/03/29 04:35:29;;;;;;;4.72;1.95;;;;;;;1.16;100.00;95735.31;5040519;28;20566;-72
2023/03/29 04:37:55;;;;;;;5.13;1.80;;;;;;;1.30;100.00;95733.47;5042389;28;20110;-72
2023/03/29 04:40:20;;;;;;;4.05;1.92;;;;;;;1.46;100.00;95738.19;5039905;28;20042;-72
2023/03/29 04:42:46;;;;;;;3.55;1.55;;;;;;;1.53;100.00;95736.38;5038855;28;20037;-72
2023/03/29 04:45:17;;;;;;;3.38;2.13;;;;;;;1.58;100.00;95724.59;5041119;28;20424;-72
2023/03/29 04:47:44;;;;;;;3.58;1.50;;;;;;;1.71;100.00;95724.50;5036033;28;20053;-72
2023/03/29 04:50:11;;;;;;;3.40;1.63;;;;;;;1.93;100.00;95726.81;5036069;28;20080;-72
2023/03/29 04:52:37;;;;;;;2.40;1.58;;;;;;;2.10;100.00;95733.09;5031285;28;20164;-72
2023/03/29 04:55:04;;;;;;;3.28;1.17;;;;;;;2.18;100.00;95735.41;5037621;28;20075;-72
2023/03/29 04:57:30;;;;;;;6.65;1.45;;;;;;;2.27;100.00;95732.56;5035763;28;20040;-72
2023/03/29 04:59:56;;;;;;;3.30;1.50;;;;;;;2.34;100.00;95728.13;5040896;28;20037;-72
2023/03/29 05:02:22;;;;;;;1.98;1.35;;;;;;;2.49;100.00;95714.81;5036270;28;20038;-72
2023/03/29 05:04:49;;;;;;;3.40;1.52;;;;;;;2.68;100.00;95718.25;5044882;28;20166;-73
2023/03/29 05:07:16;;;;;;;2.00;1.30;;;;;;;2.88;100.00;95718.06;5043215;28;20048;-72
2023/03/29 05:09:42;;;;;;;2.78;1.60;;;;;;;3.01;100.00;95711.94;5025466;28;20103;-73
2023/03/29 05:12:08;;;;;;;1.98;1.42;;;;;;;3.18;100.00;95718.16;5043402;28;20095;-72
2023/03/29 05:14:33;;;;;;;2.67;1.50;;;;;;;3.31;100.00;95724.22;5034720;28;20080;-73
2023/03/29 05:17:00;;;;;;;2.05;1.20;;;;;;;3.36;100.00;95722.56;5035204;28;20067;-72
2023/03/29 05:19:26;;;;;;;3.63;1.60;;;;;;;3.46;100.00;95719.41;5040613;28;20041;-71
2023/03/29 05:21:52;;;;;;;5.65;1.60;;;;;;;3.51;100.00;95727.38;5039133;28;20041;-73
2023/03/29 05:24:18;;;;;;;1.85;1.40;;;;;;;3.54;100.00;95719.13;5046244;28;20630;-71
2023/03/29 05:26:46;;;;;;;2.42;1.45;;;;;;;3.67;100.00;95720.78;5036882;28;20064;-70
2023/03/29 05:29:12;;;;;;;1.48;1.20;;;;;;;3.76;100.00;95716.84;5049033;28;21131;-71
2023/03/29 05:31:38;;;;;;;2.75;1.35;;;;;;;3.77;100.00;95715.03;5045580;28;20099;-72
2023/03/29 05:34:05;;;;;;;2.35;1.33;;;;;;;3.89;100.00;95728.88;5040130;28;20049;-74
2023/03/29 05:36:32;;;;;;;4.03;1.77;;;;;;;3.92;100.00;95722.44;5034765;28;20033;-76
2023/03/29 05:38:58;;;;;;;2.75;1.30;;;;;;;3.93;100.00;95704.00;5046978;28;20041;-72
2023/03/29 05:41:24;;;;;;;4.70;1.40;;;;;;;3.91;100.00;95711.25;5065186;28;20018;-73
2023/03/29 05:43:50;;;;;;;1.98;1.20;;;;;;;3.92;100.00;95718.03;5070809;28;20035;-74
2023/03/29 05:46:16;;;;;;;5.45;1.40;;;;;;;4.02;100.00;95724.50;5076160;28;20048;-72
2023/03/29 05:48:42;;;;;;;7.57;1.60;;;;;;;4.08;100.00;95726.22;5072082;28;20096;-71
2023/03/29 05:51:08;;;;;;;3.78;1.63;;;;;;;4.14;100.00;95733.16;5066780;28;20045;-72
2023/03/29 05:53:34;;;;;;;5.28;1.42;;;;;;;4.28;100.00;95731.13;5065210;28;20104;-73
2023/03/29 05:56:00;;;;;;;2.25;1.50;;;;;;;4.29;100.00;95728.31;5061683;28;20041;-72
2023/03/29 05:58:27;;;;;;;2.50;1.45;;;;;;;4.22;100.00;95732.81;5066078;28;20032;-73
2023/03/29 06:00:53;;;;;;;4.30;1.40;;;;;;;4.28;100.00;95729.34;5068143;28;20037;-72
2023/03/29 06:03:23;;;;;;;4.15;1.55;;;;;;;4.41;100.00;95730.16;5066980;28;20033;-72
2023/03/29 06:06:03;;;;;;;5.55;1.60;;;;;;;4.46;100.00;95722.47;5065365;28;20455;-73
2023/03/29 06:08:30;;;;;;;1.48;1.13;;;;;;;4.78;100.00;95729.97;5042864;28;20041;-73
2023/03/29 06:11:00;;;;;;;5.05;1.80;;;;;;;4.75;100.00;95725.19;5041765;28;20174;-73
2023/03/29 06:13:30;;;;;;;2.35;1.20;;;;;;;4.89;100.00;95723.94;5038574;28;20159;-74
2023/03/29 06:15:56;;;;;;;1.73;1.15;;;;;;;4.83;100.00;95724.88;5043693;28;20056;-72
2023/03/29 06:18:22;;;;;;;2.88;1.13;;;;;;;4.95;100.00;95725.63;5039045;28;20448;-73
2023/03/29 06:20:52;;;;;;;3.80;1.35;;;;;;;4.94;100.00;95733.69;5032714;28;20099;-72
2023/03/29 06:23:21;;;;;;;2.45;1.30;;;;;;;4.90;100.00;95730.75;5036331;28;20045;-73
2023/03/29 06:25:50;;;;;;;3.70;1.38;;;;;;;4.95;100.00;95733.47;5036856;28;20045;-74
2023/03/29 06:28:17;;;;;;;5.38;1.38;;;;;;;5.02;100.00;95741.97;5041730;28;20053;-72
2023/03/29 06:30:44;;;;;;;4.03;1.48;;;;;;;5.00;100.00;95741.41;5038093;28;20042;-73
2023/03/29 06:33:11;;;;;;;4.72;1.35;;;;;;;5.00;100.00;95748.44;5041954;28;20119;-72
2023/03/29 06:35:39;;;;;;;3.30;1.30;;;;;;;4.79;100.00;95749.81;5042929;28;20044;-73
2023/03/29 06:38:06;;;;;;;2.65;1.30;;;;;;;4.78;100.00;95750.81;5039307;28;20483;-74
2023/03/29 06:40:33;;;;;;;3.10;1.27;;;;;;;4.86;100.00;95763.53;5040066;28;20033;-73
2023/03/29 06:42:58;;;;;;;1.92;1.13;;;;;;;4.83;100.00;95761.38;5038869;28;20049;-73
2023/03/29 06:45:26;;;;;;;2.08;1.20;;;;;;;4.98;100.00;95761.69;5044465;28;20041;-73
2023/03/29 06:47:52;;;;;;;2.55;1.20;;;;;;;5.03;100.00;95769.63;5043056;28;20060;-73
2023/03/29 06:50:18;;;;;;;2.95;1.23;;;;;;;5.18;100.00;95765.78;5046272;28;20492;-72
2023/03/29 06:52:44;;;;;;;3.90;1.48;;;;;;;5.23;100.00;95768.50;5038863;28;20052;-72
2023/03/29 06:55:11;;;;;;;4.40;1.83;;;;;;;5.28;100.00;95760.75;5037493;28;20075;-73
2023/03/29 06:57:37;;;;;;;5.93;1.20;;;;;;;5.44;100.00;95758.47;5045053;28;20041;-72
2023/03/29 07:00:50;;;;;;;1.67;1.17;;;;;;;5.56;100.00;95756.66;5040290;28;20033;-73
2023/03/29 07:02:57;;;;;;;2.17;1.25;;;;;;;5.56;100.00;95756.66;5038218;28;20057;-72
2023/03/29 07:05:26;;;;;;;5.70;1.40;;;;;;;5.65;100.00;95750.03;5042041;28;20037;-72
2023/03/29 07:07:58;;;;;;;2.65;1.50;;;;;;;5.75;100.00;95761.69;5041752;28;20041;-73
2023/03/29 07:10:37;;;;;;;1.63;1.13;;;;;;;5.88;100.00;95750.97;5043097;28;20045;-72
2023/03/29 07:13:07;;;;;;;4.15;1.52;;;;;;;5.91;100.00;95753.13;5033009;28;20037;-72
2023/03/29 07:15:34;;;;;;;2.20;1.25;;;;;;;6.04;100.00;95763.31;5046148;28;20042;-72
2023/03/29 07:18:02;;;;;;;5.25;1.50;;;;;;;6.20;100.00;95760.97;5037277;28;20049;-72
2023/03/29 07:20:28;;;;;;;3.45;1.60;;;;;;;6.33;100.00;95755.44;5045317;28;21476;-72
2023/03/29 07:22:53;;;;;;;2.55;1.38;;;;;;;6.47;100.00;95755.16;5047288;28;20043;-72
2023/03/29 07:25:22;;;;;;;4.78;1.60;;;;;;;6.60;100.00;95754.84;5036318;28;20048;-72
2023/03/29 07:27:48;;;;;;;1.92;1.23;;;;;;;6.65;100.00;95747.09;5049137;28;20044;-72
2023/03/29 07:30:17;;;;;;;4.75;1.52;;;;;;;6.84;100.00;95759.91;5046295;28;20471;-72
2023/03/29 07:32:45;;;;;;;2.17;1.40;;;;;;;6.97;100.00;95759.59;5056948;28;20499;-72
2023/03/29 07:35:13;;;;;;;3.90;1.70;;;;;;;7.10;100.00;95754.00;5049954;28;20044;-72
2023/03/29 07:37:41;;;;;;;3.05;1.52;;;;;;;7.20;100.00;95763.03;5043515;28;20036;-72
2023/03/29 07:40:17;;;;;;;5.00;1.58;;;;;;;7.20;100.00;95757.81;5047894;28;20041;-72
2023/03/29 07:42:45;;;;;;;5.88;2.00;;;;;;;7.33;100.00;95764.53;5046053;28;20523;-72
2023/03/29 07:45:13;;;;;;;7.30;1.30;;;;;;;7.44;100.00;95759.16;5043691;28;20037;-72
2023/03/29 07:47:42;;;;;;;10.45;1.42;;;;;;;7.50;100.00;95767.06;5037893;28;20034;-72
2023/03/29 07:50:09;;;;;;;4.38;1.48;;;;;;;7.34;100.00;95769.53;5043444;28;20047;-72
2023/03/29 07:52:37;;;;;;;3.65;1.80;;;;;;;7.34;100.00;95774.75;5034305;28;20049;-71
2023/03/29 07:55:07;;;;;;;5.75;1.73;;;;;;;7.36;100.00;95771.91;5040559;28;20098;-72
2023/03/29 07:57:33;;;;;;;5.53;1.80;;;;;;;7.23;100.00;95778.25;5037976;28;20064;-72
2023/03/29 07:59:59;;;;;;;2.83;1.40;;;;;;;7.41;100.00;95775.38;5039713;28;20060;-72
2023/03/29 08:02:26;;;;;;;4.25;1.80;;;;;;;7.40;100.00;95773.00;5041335;28;20041;-73
2023/03/29 08:04:55;;;;;;;3.15;1.42;;;;;;;7.53;100.00;95769.19;5040700;28;20447;-72
2023/03/29 08:07:21;;;;;;;4.78;2.08;;;;;;;7.62;100.00;95783.47;5041910;28;20041;-72
2023/03/29 08:09:47;;;;;;;3.50;1.40;;;;;;;7.65;100.00;95785.59;5034409;28;20037;-72
2023/03/29 08:12:12;;;;;;;5.85;1.70;;;;;;;7.67;100.00;95782.75;5038999;28;20047;-72
2023/03/29 08:14:38;;;;;;;6.68;1.90;;;;;;;7.64;100.00;95773.53;5030454;28;20491;-72
2023/03/29 08:17:03;;;;;;;4.68;1.48;;;;;;;7.69;100.00;95771.00;5036713;28;20054;-72
2023/03/29 08:19:29;;;;;;;6.70;1.58;;;;;;;7.75;100.00;95775.25;5036816;28;20068;-73
2023/03/29 08:21:55;;;;;;;3.25;1.50;;;;;;;7.84;100.00;95774.81;5043438;28;20052;-73
2023/03/29 08:24:20;;;;;;;6.97;1.90;;;;;;;7.84;100.00;95780.06;5047622;28;20432;-73
2023/03/29 08:26:47;;;;;;;4.10;1.70;;;;;;;7.78;100.00;95782.59;5034939;28;20400;-72
2023/03/29 08:29:13;;;;;;;4.38;1.65;;;;;;;7.74;100.00;95778.91;5030912;28;21885;-73
2023/03/29 08:31:39;;;;;;;2.95;1.30;;;;;;;7.79;100.00;95776.34;5045391;28;20528;-72
2023/03/29 08:34:05;;;;;;;2.38;1.23;;;;;;;7.69;100.00;95776.22;5040609;28;20046;-72
2023/03/29 08:36:30;;;;;;;2.28;1.40;;;;;;;7.68;100.00;95769.41;5048528;28;20045;-73
2023/03/29 08:38:56;;;;;;;3.97;1.48;;;;;;;7.60;100.00;95772.44;5041872;28;20120;-72
2023/03/29 08:41:30;;;;;;;3.33;1.77;;;;;;;7.76;100.00;95776.84;5030121;28;20944;-72
2023/03/29 08:44:14;;;;;;;;;;;;;;;7.89;100.00;95775.66;5046488;28;20056;-72
2023/03/29 08:46:50;;;;;;;4.38;1.63;;;;;;;7.96;100.00;95780.72;5039277;28;19932;-72
2023/03/29 08:49:18;;;;;;;6.68;1.73;;;;;;;8.09;100.00;95777.72;5035409;28;20045;-73
2023/03/29 08:51:48;;;;;;;2.60;1.60;;;;;;;8.12;100.00;95769.34;5030875;28;20123;-73
2023/03/29 08:54:23;;;;;;;3.63;1.40;;;;;;;8.34;100.00;95765.88;5051283;28;20421;-72
2023/03/29 08:56:51;;;;;;;4.35;1.85;;;;;;;8.52;100.00;95766.59;5050194;28;20147;-72
2023/03/29 08:59:28;;;;;;;3.55;1.58;;;;;;;8.65;100.00;95771.44;5033262;28;20037;-72
2023/03/29 09:01:57;;;;;;;2.92;1.63;;;;;;;8.70;100.00;95768.84;5047076;28;20076;-73
2023/03/29 09:04:26;;;;;;;2.90;1.50;;;;;;;8.70;100.00;95758.34;5044972;28;20042;-73
2023/03/29 09:06:53;;;;;;;5.20;1.60;;;;;;;8.79;100.00;95767.38;5051124;28;20072;-73
2023/03/29 09:09:21;;;;;;;3.08;1.48;;;;;;;8.82;100.00;95756.34;5033974;28;20052;-72
2023/03/29 09:12:02;;;;;;;5.05;1.67;;;;;;;8.83;100.00;95757.94;5044655;28;20116;-73
2023/03/29 09:14:49;;;;;;;4.28;1.63;;;;;;;8.81;100.00;95759.22;5050986;28;20045;-73
2023/03/29 09:17:33;;;;;;;3.95;1.65;;;;;;;8.76;100.00;95762.59;5050857;28;20405;-73
2023/03/29 09:20:01;;;;;;;6.80;1.60;;;;;;;8.89;100.00;95765.84;5043780;28;20045;-73
2023/03/29 09:23:00;;;;;;;2.55;1.48;;;;;;;8.88;100.00;95769.50;5041143;28;20049;-72
2023/03/29 09:25:45;;;;;;;3.17;1.60;;;;;;;8.91;100.00;95771.66;5051804;28;20048;-73
2023/03/29 09:28:18;;;;;;;2.73;1.40;;;;;;;9.19;100.00;95773.13;5043266;28;20037;-73
2023/03/29 09:30:43;;;;;;;2.28;1.45;;;;;;;9.04;100.00;95773.00;5033205;28;20057;-72
2023/03/29 09:33:18;;;;;;;3.17;1.48;;;;;;;9.16;100.00;95766.53;5038796;28;20397;-72
2023/03/29 09:36:16;;;;;;;2.00;1.30;;;;;;;9.07;100.00;95762.81;5047002;28;20064;-73
2023/03/29 09:38:47;;;;;;;3.67;1.50;;;;;;;9.06;100.00;95766.47;5032782;28;20658;-73
2023/03/29 09:41:38;;;;;;;6.93;1.50;;;;;;;9.19;100.00;95773.94;5038634;28;20044;-73
2023/03/29 09:44:11;;;;;;;3.53;1.52;;;;;;;9.08;100.00;95764.41;5046371;28;20037;-73
2023/03/29 09:46:43;;;;;;;5.80;1.40;;;;;;;9.13;100.00;95772.28;5038837;28;20445;-72
2023/03/29 09:49:16;;;;;;;3.05;1.20;;;;;;;9.27;100.00;95761.38;5046211;28;20037;-73
2023/03/29 09:51:45;;;;;;;5.25;1.60;;;;;;;9.07;100.00;95760.19;5043557;28;20033;-72
2023/03/29 09:54:11;;;;;;;3.40;1.50;;;;;;;9.38;100.00;95752.50;5045269;28;20048;-72
2023/03/29 09:56:38;;;;;;;5.78;1.58;;;;;;;9.43;100.00;95755.13;5035807;28;20049;-72
2023/03/29 09:59:04;;;;;;;6.25;1.60;;;;;;;9.88;100.00;95751.13;5043412;28;20045;-73
2023/03/29 10:01:38;;;;;;;2.55;1.42;;;;;;;10.17;100.00;95748.03;5040981;28;20048;-73
2023/03/29 10:04:11;;;;;;;4.75;1.60;;;;;;;10.14;100.00;95751.19;5048494;28;20041;-74
2023/03/29 10:06:48;;;;;;;5.45;1.67;;;;;;;10.07;100.00;95742.75;5041607;28;20053;-74
2023/03/29 10:09:24;;;;;;;4.63;1.60;;;;;;;9.95;100.00;95736.94;5049239;28;20535;-74
2023/03/29 10:12:01;;;;;;;2.03;1.42;;;;;;;9.88;100.00;95753.75;5050030;28;20468;-74
2023/03/29 10:14:40;;;;;;;3.78;1.65;;;;;;;10.01;100.00;95738.50;5035946;28;20104;-73
2023/03/29 10:17:17;;;;;;;3.45;1.50;;;;;;;10.09;100.00;95745.91;5047597;28;20489;-73
2023/03/29 10:19:56;;;;;;;2.67;1.50;;;;;;;10.03;100.00;95736.44;5040075;28;20608;-73
2023/03/29 10:22:24;;;;;;;4.03;1.80;;;;;;;10.14;100.00;95743.28;5045133;28;20038;-74
2023/03/29 10:24:51;;;;;;;4.40;1.88;;;;;;;10.35;100.00;95733.59;5048432;28;20037;-73
2023/03/29 10:27:23;;;;;;;4.07;1.30;;;;;;;10.17;100.00;95732.25;5048126;28;20098;-73
2023/03/29 10:29:50;;;;;;;2.45;1.38;;;;;;;10.25;100.00;95732.78;5051151;28;20053;-73
2023/03/29 10:32:32;;;;;;;5.25;1.75;;;;;;;10.16;100.00;95730.66;5042316;28;20044;-73
2023/03/29 10:35:22;;;;;;;3.38;1.58;;;;;;;10.23;100.00;95735.69;5047249;28;20075;-73
2023/03/29 10:37:51;;;;;;;2.38;1.30;;;;;;;10.12;100.00;95734.84;5050511;28;20037;-73
2023/03/29 10:40:24;;;;;;;2.55;1.38;;;;;;;10.24;100.00;95726.72;5048836;28;20055;-73
2023/03/29 10:42:52;;;;;;;3.08;1.35;;;;;;;10.58;100.00;95713.88;5048359;28;20041;-74
2023/03/29 10:45:27;;;;;;;3.72;1.63;;;;;;;10.85;100.00;95720.69;5047094;28;20048;-73
2023/03/29 10:47:55;;;;;;;3.58;1.33;;;;;;;11.32;100.00;95712.69;5047300;28;20046;-74
2023/03/29 10:50:21;;;;;;;3.13;1.33;;;;;;;11.78;100.00;95709.88;5046439;28;20048;-73
2023/03/29 10:52:49;;;;;;;3.17;1.55;;;;;;;11.59;99.10;95723.69;5050484;28;20081;-73
2023/03/29 10:55:14;;;;;;;3.83;1.42;;;;;;;11.72;97.27;95721.50;5042455;28;20076;-73
2023/03/29 10:58:05;;;;;;;6.15;1.50;;;;;;;11.18;100.00;95712.50;5042886;28;20116;-73
2023/03/29 11:00:39;;;;;;;2.67;1.50;;;;;;;11.39;99.37;95710.56;5048382;28;20455;-73
2023/03/29 11:03:08;;;;;;;;;;;;;;;11.40;98.68;95714.78;5044864;28;20114;-73
2023/03/29 11:05:42;;;;;;;2.22;1.20;;;;;;;11.72;99.39;95716.22;5036058;28;19927;-73
2023/03/29 11:08:53;;;;;;;2.83;1.30;;;;;;;11.61;99.64;95715.50;5052275;28;20045;-73
2023/03/29 11:11:43;;;;;;;2.67;1.50;;;;;;;11.39;96.19;95702.66;5039200;28;20051;-73
2023/03/29 11:14:38;;;;;;;6.68;1.50;;;;;;;11.52;92.98;95712.63;5048789;28;20060;-72
2023/03/29 11:17:13;;;;;;;;;;;;;;;11.73;91.83;95696.72;5045200;28;20044;-73
2023/03/29 11:19:51;;;;;;;4.07;1.50;;;;;;;11.61;88.22;95703.09;5050442;28;19929;-73
2023/03/29 11:22:34;;;;;;;5.18;1.67;;;;;;;12.00;90.36;95700.84;5041530;28;20468;-73
2023/03/29 11:25:23;;;;;;;7.78;1.52;;;;;;;12.30;82.90;95697.97;5047060;28;20037;-73
2023/03/29 11:28:04;;;;;;;3.20;1.30;;;;;;;12.46;80.24;95703.16;5037892;28;20055;-74
2023/03/29 11:30:50;;;;;;;4.13;1.60;;;;;;;12.29;79.34;95699.03;5047935;28;20048;-73
2023/03/29 11:33:33;;;;;;;5.45;1.40;;;;;;;12.50;79.25;95693.63;5044704;28;20037;-73
2023/03/29 11:36:16;;;;;;;3.22;1.42;;;;;;;12.73;82.80;95696.56;5045259;28;20052;-74
2023/03/29 11:38:57;;;;;;;4.15;1.60;;;;;;;13.20;76.34;95695.03;5038484;28;20037;-75
2023/03/29 11:41:27;;;;;;;4.38;1.80;;;;;;;13.10;76.40;95689.88;5044016;28;20072;-74
2023/03/29 11:44:05;;;;;;;4.30;1.70;;;;;;;13.12;74.83;95693.81;5031110;28;20063;-73
2023/03/29 11:46:36;;;;;;;3.85;1.60;;;;;;;13.10;73.59;95689.88;5048398;28;20033;-75
2023/03/29 11:49:20;;;;;;;3.80;1.70;;;;;;;13.33;72.54;95694.38;5049974;28;20048;-73
2023/03/29 11:52:16;;;;;;;4.27;1.73;;;;;;;13.16;72.83;95688.78;5039114;28;20102;-73